Terminal Aerodrome Forecast
Issued by NWS Binghamton, NY

Home | Current Version | Previous Version | Text Only | Print | Product List | Glossary On
Versions: 1 2 3 4 5 6 7 8 9 10 11 12 13 14 15 16 17
200
FTUS41 KBGM 301739
TAFBGM
TAF
KBGM 301739Z 3018/3118 08008KT P6SM SCT015 OVC050
      TEMPO 3018/3022 3SM SHRA BR OVC015
     FM302200 11005KT P6SM OVC035
     FM310600 12008KT 3SM -SHRA BR OVC015
      TEMPO 3109/3113 2SM SHRA BR OVC008=

USA.gov is the U.S. government's official web portal to all federal, state and local government web resources and services.